sensor_id;sensor_type;location;lat;lon;timestamp;temperature;humidity
23081;DHT22;11708;50.570;8.532;2023-02-15T00:01:45;2.20;99.90
23081;DHT22;11708;50.570;8.532;2023-02-15T00:04:13;2.20;99.90
23081;DHT22;11708;50.570;8.532;2023-02-15T00:06:39;2.20;99.90
23081;DHT22;11708;50.570;8.532;2023-02-15T00:09:05;2.10;99.90
23081;DHT22;11708;50.570;8.532;2023-02-15T00:11:31;2.10;99.90
23081;DHT22;11708;50.570;8.532;2023-02-15T00:16:35;2.10;99.90
23081;DHT22;11708;50.570;8.532;2023-02-15T00:19:01;2.10;99.90
23081;DHT22;11708;50.570;8.532;2023-02-15T00:21:28;2.10;99.90
23081;DHT22;11708;50.570;8.532;2023-02-15T00:23:55;2.10;99.90
23081;DHT22;11708;50.570;8.532;2023-02-15T00:26:21;2.10;99.90
23081;DHT22;11708;50.570;8.532;2023-02-15T00:28:47;2.10;99.90
23081;DHT22;11708;50.570;8.532;2023-02-15T00:31:12;2.00;99.90
23081;DHT22;11708;50.570;8.532;2023-02-15T00:33:38;2.00;99.90
23081;DHT22;11708;50.570;8.532;2023-02-15T00:36:08;2.00;99.90
23081;DHT22;11708;50.570;8.532;2023-02-15T00:38:34;2.00;99.90
23081;DHT22;11708;50.570;8.532;2023-02-15T00:41:02;1.90;99.90
23081;DHT22;11708;50.570;8.532;2023-02-15T00:43:30;1.90;99.90
23081;DHT22;11708;50.570;8.532;2023-02-15T00:45:56;1.80;99.90
23081;DHT22;11708;50.570;8.532;2023-02-15T00:48:22;1.90;99.90
23081;DHT22;11708;50.570;8.532;2023-02-15T00:50:53;1.80;99.90
23081;DHT22;11708;50.570;8.532;2023-02-15T00:53:20;1.80;99.90
23081;DHT22;11708;50.570;8.532;2023-02-15T00:55:45;1.90;99.90
23081;DHT22;11708;50.570;8.532;2023-02-15T00:58:12;1.80;99.90
23081;DHT22;11708;50.570;8.532;2023-02-15T01:00:38;1.80;99.90
23081;DHT22;11708;50.570;8.532;2023-02-15T01:03:05;1.80;99.90
23081;DHT22;11708;50.570;8.532;2023-02-15T01:05:31;1.80;99.90
23081;DHT22;11708;50.570;8.532;2023-02-15T01:07:57;1.80;99.90
23081;DHT22;11708;50.570;8.532;2023-02-15T01:10:24;1.70;99.90
23081;DHT22;11708;50.570;8.532;2023-02-15T01:12:53;1.70;99.90
23081;DHT22;11708;50.570;8.532;2023-02-15T01:15:19;1.70;99.90
23081;DHT22;11708;50.570;8.532;2023-02-15T01:17:45;1.70;99.90
23081;DHT22;11708;50.570;8.532;2023-02-15T01:20:17;1.60;99.90
23081;DHT22;11708;50.570;8.532;2023-02-15T01:22:42;1.60;99.90
23081;DHT22;11708;50.570;8.532;2023-02-15T01:25:08;1.60;99.90
23081;DHT22;11708;50.570;8.532;2023-02-15T01:27:33;1.60;99.90
23081;DHT22;11708;50.570;8.532;2023-02-15T01:29:59;1.60;99.90
23081;DHT22;11708;50.570;8.532;2023-02-15T01:32:24;1.60;99.90
23081;DHT22;11708;50.570;8.532;2023-02-15T01:34:50;1.60;99.90
23081;DHT22;11708;50.570;8.532;2023-02-15T01:37:15;1.60;99.90
23081;DHT22;11708;50.570;8.532;2023-02-15T01:39:41;1.60;99.90
23081;DHT22;11708;50.570;8.532;2023-02-15T01:42:10;1.60;99.90
23081;DHT22;11708;50.570;8.532;2023-02-15T01:44:52;1.60;99.90
23081;DHT22;11708;50.570;8.532;2023-02-15T01:47:29;1.60;99.90
23081;DHT22;11708;50.570;8.532;2023-02-15T01:52:37;1.60;99.90
23081;DHT22;11708;50.570;8.532;2023-02-15T01:55:04;1.60;99.90
23081;DHT22;11708;50.570;8.532;2023-02-15T02:00:00;1.60;99.90
23081;DHT22;11708;50.570;8.532;2023-02-15T02:02:28;1.60;99.90
23081;DHT22;11708;50.570;8.532;2023-02-15T02:04:58;1.60;99.90
23081;DHT22;11708;50.570;8.532;2023-02-15T02:07:27;1.60;99.90
23081;DHT22;11708;50.570;8.532;2023-02-15T02:09:54;1.60;99.90
23081;DHT22;11708;50.570;8.532;2023-02-15T02:12:20;1.60;99.90
23081;DHT22;11708;50.570;8.532;2023-02-15T02:14:49;1.50;99.90
23081;DHT22;11708;50.570;8.532;2023-02-15T02:20:04;1.50;99.90
23081;DHT22;11708;50.570;8.532;2023-02-15T02:33:43;1.50;99.90
23081;DHT22;11708;50.570;8.532;2023-02-15T02:36:20;1.50;99.90
23081;DHT22;11708;50.570;8.532;2023-02-15T02:42:17;1.40;99.90
23081;DHT22;11708;50.570;8.532;2023-02-15T02:44:49;1.40;99.90
23081;DHT22;11708;50.570;8.532;2023-02-15T02:47:25;1.40;99.90
23081;DHT22;11708;50.570;8.532;2023-02-15T02:49:58;1.30;99.90
23081;DHT22;11708;50.570;8.532;2023-02-15T02:52:44;1.30;99.90
23081;DHT22;11708;50.570;8.532;2023-02-15T02:57:53;1.40;99.90
23081;DHT22;11708;50.570;8.532;2023-02-15T03:00:21;1.30;99.90
23081;DHT22;11708;50.570;8.532;2023-02-15T03:02:52;1.30;99.90
23081;DHT22;11708;50.570;8.532;2023-02-15T03:05:22;1.00;99.90
23081;DHT22;11708;50.570;8.532;2023-02-15T03:07:51;1.30;99.90
23081;DHT22;11708;50.570;8.532;2023-02-15T03:10:20;1.30;99.90
23081;DHT22;11708;50.570;8.532;2023-02-15T03:12:47;1.30;99.90
23081;DHT22;11708;50.570;8.532;2023-02-15T03:15:20;1.20;99.90
23081;DHT22;11708;50.570;8.532;2023-02-15T03:17:53;1.30;99.90
23081;DHT22;11708;50.570;8.532;2023-02-15T03:20:24;1.30;99.90
23081;DHT22;11708;50.570;8.532;2023-02-15T03:22:57;1.30;99.90
23081;DHT22;11708;50.570;8.532;2023-02-15T03:25:27;1.30;99.90
23081;DHT22;11708;50.570;8.532;2023-02-15T03:28:01;1.30;99.90
23081;DHT22;11708;50.570;8.532;2023-02-15T03:30:27;1.30;99.90
23081;DHT22;11708;50.570;8.532;2023-02-15T03:32:56;1.40;99.90
23081;DHT22;11708;50.570;8.532;2023-02-15T03:35:26;1.40;99.90
23081;DHT22;11708;50.570;8.532;2023-02-15T03:37:58;1.50;99.90
23081;DHT22;11708;50.570;8.532;2023-02-15T03:43:17;1.40;99.90
23081;DHT22;11708;50.570;8.532;2023-02-15T03:45:48;1.40;99.90
23081;DHT22;11708;50.570;8.532;2023-02-15T03:48:31;1.30;99.90
23081;DHT22;11708;50.570;8.532;2023-02-15T03:51:02;1.40;99.90
23081;DHT22;11708;50.570;8.532;2023-02-15T03:53:49;1.40;99.90
23081;DHT22;11708;50.570;8.532;2023-02-15T03:56:15;1.30;99.90
23081;DHT22;11708;50.570;8.532;2023-02-15T03:58:41;1.30;99.90
23081;DHT22;11708;50.570;8.532;2023-02-15T04:01:32;1.40;99.90
23081;DHT22;11708;50.570;8.532;2023-02-15T04:04:20;1.40;99.90
23081;DHT22;11708;50.570;8.532;2023-02-15T04:06:46;1.40;99.90
23081;DHT22;11708;50.570;8.532;2023-02-15T04:09:12;1.40;99.90
23081;DHT22;11708;50.570;8.532;2023-02-15T04:11:56;1.30;99.90
23081;DHT22;11708;50.570;8.532;2023-02-15T04:17:07;1.30;99.90
23081;DHT22;11708;50.570;8.532;2023-02-15T04:19:33;1.30;99.90
23081;DHT22;11708;50.570;8.532;2023-02-15T04:22:17;1.30;99.90
23081;DHT22;11708;50.570;8.532;2023-02-15T04:25:01;1.30;99.90
23081;DHT22;11708;50.570;8.532;2023-02-15T04:27:40;1.60;99.90
23081;DHT22;11708;50.570;8.532;2023-02-15T04:30:06;1.30;99.90
23081;DHT22;11708;50.570;8.532;2023-02-15T04:32:32;1.30;99.90
23081;DHT22;11708;50.570;8.532;2023-02-15T04:34:58;1.30;99.90
23081;DHT22;11708;50.570;8.532;2023-02-15T04:37:23;1.30;99.90
23081;DHT22;11708;50.570;8.532;2023-02-15T04:39:49;1.30;99.90
23081;DHT22;11708;50.570;8.532;2023-02-15T04:42:15;1.30;99.90
23081;DHT22;11708;50.570;8.532;2023-02-15T04:44:40;1.30;99.90
23081;DHT22;11708;50.570;8.532;2023-02-15T04:47:06;1.30;99.90
23081;DHT22;11708;50.570;8.532;2023-02-15T04:49:32;1.30;99.90
23081;DHT22;11708;50.570;8.532;2023-02-15T04:51:57;1.30;99.90
23081;DHT22;11708;50.570;8.532;2023-02-15T04:54:23;1.30;99.90
23081;DHT22;11708;50.570;8.532;2023-02-15T04:56:48;1.30;99.90
23081;DHT22;11708;50.570;8.532;2023-02-15T04:59:14;1.40;99.90
23081;DHT22;11708;50.570;8.532;2023-02-15T05:01:39;1.40;99.90
23081;DHT22;11708;50.570;8.532;2023-02-15T05:04:05;1.40;99.90
23081;DHT22;11708;50.570;8.532;2023-02-15T05:06:30;1.40;99.90
23081;DHT22;11708;50.570;8.532;2023-02-15T05:08:56;1.50;99.90
23081;DHT22;11708;50.570;8.532;2023-02-15T05:11:24;1.50;99.90
23081;DHT22;11708;50.570;8.532;2023-02-15T05:13:50;1.40;99.90
23081;DHT22;11708;50.570;8.532;2023-02-15T05:16:15;1.50;99.90
23081;DHT22;11708;50.570;8.532;2023-02-15T05:18:42;1.40;99.90
23081;DHT22;11708;50.570;8.532;2023-02-15T05:21:07;1.40;99.90
23081;DHT22;11708;50.570;8.532;2023-02-15T05:23:33;1.40;99.90
23081;DHT22;11708;50.570;8.532;2023-02-15T05:25:58;1.40;99.90
23081;DHT22;11708;50.570;8.532;2023-02-15T05:28:43;1.40;99.90
23081;DHT22;11708;50.570;8.532;2023-02-15T05:31:15;1.30;99.90
23081;DHT22;11708;50.570;8.532;2023-02-15T05:33:42;1.30;99.90
23081;DHT22;11708;50.570;8.532;2023-02-15T05:36:08;1.30;99.90
23081;DHT22;11708;50.570;8.532;2023-02-15T05:38:34;1.30;99.90
23081;DHT22;11708;50.570;8.532;2023-02-15T05:41:00;1.40;99.90
23081;DHT22;11708;50.570;8.532;2023-02-15T05:43:25;1.40;99.90
23081;DHT22;11708;50.570;8.532;2023-02-15T05:45:53;1.30;99.90
23081;DHT22;11708;50.570;8.532;2023-02-15T05:48:20;1.40;99.90
23081;DHT22;11708;50.570;8.532;2023-02-15T05:50:46;1.40;99.90
23081;DHT22;11708;50.570;8.532;2023-02-15T05:53:12;1.40;99.90
23081;DHT22;11708;50.570;8.532;2023-02-15T05:55:39;1.40;99.90
23081;DHT22;11708;50.570;8.532;2023-02-15T05:58:05;1.40;99.90
23081;DHT22;11708;50.570;8.532;2023-02-15T06:00:30;1.40;99.90
23081;DHT22;11708;50.570;8.532;2023-02-15T06:02:56;1.30;99.90
23081;DHT22;11708;50.570;8.532;2023-02-15T06:05:22;1.40;99.90
23081;DHT22;11708;50.570;8.532;2023-02-15T06:07:48;1.00;99.90
23081;DHT22;11708;50.570;8.532;2023-02-15T06:10:13;1.30;99.90
23081;DHT22;11708;50.570;8.532;2023-02-15T06:12:39;1.30;99.90
23081;DHT22;11708;50.570;8.532;2023-02-15T06:15:05;1.30;99.90
23081;DHT22;11708;50.570;8.532;2023-02-15T06:17:30;1.30;99.90
23081;DHT22;11708;50.570;8.532;2023-02-15T06:19:56;1.30;99.90
23081;DHT22;11708;50.570;8.532;2023-02-15T06:22:22;1.30;99.90
23081;DHT22;11708;50.570;8.532;2023-02-15T06:24:48;1.30;99.90
23081;DHT22;11708;50.570;8.532;2023-02-15T06:27:13;1.30;99.90
23081;DHT22;11708;50.570;8.532;2023-02-15T06:29:39;1.30;99.90
23081;DHT22;11708;50.570;8.532;2023-02-15T06:32:05;1.30;99.90
23081;DHT22;11708;50.570;8.532;2023-02-15T06:34:30;1.30;99.90
23081;DHT22;11708;50.570;8.532;2023-02-15T06:36:56;1.30;99.90
23081;DHT22;11708;50.570;8.532;2023-02-15T06:39:22;1.10;99.90
23081;DHT22;11708;50.570;8.532;2023-02-15T06:41:47;1.30;99.90
23081;DHT22;11708;50.570;8.532;2023-02-15T06:44:13;1.30;99.90
23081;DHT22;11708;50.570;8.532;2023-02-15T06:46:39;1.30;99.90
23081;DHT22;11708;50.570;8.532;2023-02-15T06:49:04;1.40;99.90
23081;DHT22;11708;50.570;8.532;2023-02-15T06:51:30;1.40;99.90
23081;DHT22;11708;50.570;8.532;2023-02-15T06:53:55;1.40;99.90
23081;DHT22;11708;50.570;8.532;2023-02-15T06:56:21;1.40;99.90
23081;DHT22;11708;50.570;8.532;2023-02-15T06:58:47;1.50;99.90
23081;DHT22;11708;50.570;8.532;2023-02-15T07:01:14;1.50;99.90
23081;DHT22;11708;50.570;8.532;2023-02-15T07:03:40;1.50;99.90
23081;DHT22;11708;50.570;8.532;2023-02-15T07:06:06;1.50;99.90
23081;DHT22;11708;50.570;8.532;2023-02-15T07:08:34;1.50;99.90
23081;DHT22;11708;50.570;8.532;2023-02-15T07:11:00;1.50;99.90
23081;DHT22;11708;50.570;8.532;2023-02-15T07:13:46;1.50;99.90
23081;DHT22;11708;50.570;8.532;2023-02-15T07:16:12;1.50;99.90
23081;DHT22;11708;50.570;8.532;2023-02-15T07:18:38;1.50;99.90
23081;DHT22;11708;50.570;8.532;2023-02-15T07:21:04;1.50;99.90
23081;DHT22;11708;50.570;8.532;2023-02-15T07:23:34;1.50;99.90
23081;DHT22;11708;50.570;8.532;2023-02-15T07:26:00;1.60;99.90
23081;DHT22;11708;50.570;8.532;2023-02-15T07:28:27;1.60;99.90
23081;DHT22;11708;50.570;8.532;2023-02-15T07:30:53;1.60;99.90
23081;DHT22;11708;50.570;8.532;2023-02-15T07:33:19;1.60;99.90
23081;DHT22;11708;50.570;8.532;2023-02-15T07:35:56;1.60;99.90
23081;DHT22;11708;50.570;8.532;2023-02-15T07:38:24;1.60;99.90
23081;DHT22;11708;50.570;8.532;2023-02-15T07:40:49;1.60;99.90
23081;DHT22;11708;50.570;8.532;2023-02-15T07:43:15;1.60;99.90
23081;DHT22;11708;50.570;8.532;2023-02-15T07:45:41;1.60;99.90
23081;DHT22;11708;50.570;8.532;2023-02-15T07:48:07;1.60;99.90
23081;DHT22;11708;50.570;8.532;2023-02-15T07:50:33;1.60;99.90
23081;DHT22;11708;50.570;8.532;2023-02-15T07:53:00;1.60;99.90
23081;DHT22;11708;50.570;8.532;2023-02-15T07:55:26;1.70;99.90
23081;DHT22;11708;50.570;8.532;2023-02-15T07:57:51;1.50;99.90
23081;DHT22;11708;50.570;8.532;2023-02-15T08:00:20;1.70;99.90
23081;DHT22;11708;50.570;8.532;2023-02-15T08:02:49;1.70;99.90
23081;DHT22;11708;50.570;8.532;2023-02-15T08:05:33;1.70;99.90
23081;DHT22;11708;50.570;8.532;2023-02-15T08:07:59;1.70;99.90
23081;DHT22;11708;50.570;8.532;2023-02-15T08:10:24;1.70;99.90
23081;DHT22;11708;50.570;8.532;2023-02-15T08:13:10;1.70;99.90
23081;DHT22;11708;50.570;8.532;2023-02-15T08:15:35;1.70;99.90
23081;DHT22;11708;50.570;8.532;2023-02-15T08:18:01;1.70;99.90
23081;DHT22;11708;50.570;8.532;2023-02-15T08:20:27;1.70;99.90
23081;DHT22;11708;50.570;8.532;2023-02-15T08:22:52;1.70;99.90
23081;DHT22;11708;50.570;8.532;2023-02-15T08:25:18;1.70;99.90
23081;DHT22;11708;50.570;8.532;2023-02-15T08:27:44;1.60;99.90
23081;DHT22;11708;50.570;8.532;2023-02-15T08:30:09;1.70;99.90
23081;DHT22;11708;50.570;8.532;2023-02-15T08:32:35;1.70;99.90
23081;DHT22;11708;50.570;8.532;2023-02-15T08:35:02;1.80;99.90
23081;DHT22;11708;50.570;8.532;2023-02-15T08:37:27;1.80;99.90
23081;DHT22;11708;50.570;8.532;2023-02-15T08:39:53;1.80;99.90
23081;DHT22;11708;50.570;8.532;2023-02-15T08:42:18;1.90;99.90
23081;DHT22;11708;50.570;8.532;2023-02-15T08:44:46;1.90;99.90
23081;DHT22;11708;50.570;8.532;2023-02-15T08:47:11;1.80;99.90
23081;DHT22;11708;50.570;8.532;2023-02-15T08:49:37;1.80;99.90
23081;DHT22;11708;50.570;8.532;2023-02-15T08:52:02;1.80;99.90
23081;DHT22;11708;50.570;8.532;2023-02-15T08:54:28;1.80;99.90
23081;DHT22;11708;50.570;8.532;2023-02-15T08:56:54;1.90;99.90
23081;DHT22;11708;50.570;8.532;2023-02-15T08:59:21;2.00;99.90
23081;DHT22;11708;50.570;8.532;2023-02-15T09:01:50;2.00;99.90
23081;DHT22;11708;50.570;8.532;2023-02-15T09:04:16;2.00;99.90
23081;DHT22;11708;50.570;8.532;2023-02-15T09:06:44;2.00;99.90
23081;DHT22;11708;50.570;8.532;2023-02-15T09:09:10;2.00;99.90
23081;DHT22;11708;50.570;8.532;2023-02-15T09:11:41;2.00;99.90
23081;DHT22;11708;50.570;8.532;2023-02-15T09:14:10;2.00;99.90
23081;DHT22;11708;50.570;8.532;2023-02-15T09:16:40;2.10;99.90
23081;DHT22;11708;50.570;8.532;2023-02-15T09:19:06;2.10;99.90
23081;DHT22;11708;50.570;8.532;2023-02-15T09:21:35;2.20;99.90
23081;DHT22;11708;50.570;8.532;2023-02-15T09:24:06;2.20;99.90
23081;DHT22;11708;50.570;8.532;2023-02-15T09:26:33;2.20;99.90
23081;DHT22;11708;50.570;8.532;2023-02-15T09:29:00;2.30;99.90
23081;DHT22;11708;50.570;8.532;2023-02-15T09:31:28;2.30;99.90
23081;DHT22;11708;50.570;8.532;2023-02-15T09:33:55;2.30;99.90
23081;DHT22;11708;50.570;8.532;2023-02-15T09:36:25;2.40;99.90
23081;DHT22;11708;50.570;8.532;2023-02-15T09:52:42;2.50;99.90
23081;DHT22;11708;50.570;8.532;2023-02-15T09:58:10;2.70;99.90
23081;DHT22;11708;50.570;8.532;2023-02-15T10:01:06;2.70;99.90
23081;DHT22;11708;50.570;8.532;2023-02-15T10:03:41;2.80;99.90
23081;DHT22;11708;50.570;8.532;2023-02-15T10:06:24;2.80;99.90
23081;DHT22;11708;50.570;8.532;2023-02-15T10:14:51;2.80;99.90
23081;DHT22;11708;50.570;8.532;2023-02-15T10:22:52;2.90;99.90
23081;DHT22;11708;50.570;8.532;2023-02-15T10:34:15;3.00;99.90
23081;DHT22;11708;50.570;8.532;2023-02-15T10:42:43;3.10;99.90
23081;DHT22;11708;50.570;8.532;2023-02-15T10:50:49;2.90;99.90
23081;DHT22;11708;50.570;8.532;2023-02-15T10:59:19;2.90;99.90
23081;DHT22;11708;50.570;8.532;2023-02-15T11:04:40;2.90;99.90
23081;DHT22;11708;50.570;8.532;2023-02-15T11:07:32;2.90;99.90
23081;DHT22;11708;50.570;8.532;2023-02-15T11:12:49;3.10;99.90
23081;DHT22;11708;50.570;8.532;2023-02-15T11:15:45;3.20;99.90
23081;DHT22;11708;50.570;8.532;2023-02-15T11:18:35;3.20;99.90
23081;DHT22;11708;50.570;8.532;2023-02-15T11:21:27;3.30;99.90
23081;DHT22;11708;50.570;8.532;2023-02-15T11:23:54;3.40;99.90
23081;DHT22;11708;50.570;8.532;2023-02-15T11:26:41;3.50;99.90
23081;DHT22;11708;50.570;8.532;2023-02-15T11:31:49;3.60;99.90
23081;DHT22;11708;50.570;8.532;2023-02-15T11:36:47;3.60;99.90
23081;DHT22;11708;50.570;8.532;2023-02-15T11:39:17;3.60;99.90
23081;DHT22;11708;50.570;8.532;2023-02-15T11:41:57;3.60;99.90
23081;DHT22;11708;50.570;8.532;2023-02-15T11:45:16;3.60;99.90
23081;DHT22;11708;50.570;8.532;2023-02-15T11:47:19;3.60;99.90
23081;DHT22;11708;50.570;8.532;2023-02-15T11:49:45;3.70;99.90
23081;DHT22;11708;50.570;8.532;2023-02-15T11:52:14;3.70;99.90
23081;DHT22;11708;50.570;8.532;2023-02-15T11:54:46;3.70;99.90
23081;DHT22;11708;50.570;8.532;2023-02-15T11:57:32;3.70;99.90
23081;DHT22;11708;50.570;8.532;2023-02-15T12:00:03;3.80;99.90
23081;DHT22;11708;50.570;8.532;2023-02-15T12:02:31;3.80;99.90
23081;DHT22;11708;50.570;8.532;2023-02-15T12:05:07;3.80;99.90
23081;DHT22;11708;50.570;8.532;2023-02-15T12:07:37;3.90;99.90
23081;DHT22;11708;50.570;8.532;2023-02-15T12:12:41;3.90;99.90
23081;DHT22;11708;50.570;8.532;2023-02-15T12:15:09;3.90;99.90
23081;DHT22;11708;50.570;8.532;2023-02-15T12:17:41;4.00;99.90
23081;DHT22;11708;50.570;8.532;2023-02-15T12:22:39;4.00;99.90
23081;DHT22;11708;50.570;8.532;2023-02-15T12:28:15;4.00;99.90
23081;DHT22;11708;50.570;8.532;2023-02-15T12:30:44;4.00;99.90
23081;DHT22;11708;50.570;8.532;2023-02-15T12:33:29;4.00;99.90
23081;DHT22;11708;50.570;8.532;2023-02-15T12:36:26;4.00;99.90
23081;DHT22;11708;50.570;8.532;2023-02-15T12:49:41;3.90;99.90
23081;DHT22;11708;50.570;8.532;2023-02-15T12:54:48;3.80;99.90
23081;DHT22;11708;50.570;8.532;2023-02-15T12:57:27;3.80;99.90
23081;DHT22;11708;50.570;8.532;2023-02-15T13:02:46;3.70;99.90
23081;DHT22;11708;50.570;8.532;2023-02-15T13:05:27;3.70;99.90
23081;DHT22;11708;50.570;8.532;2023-02-15T13:08:03;4.10;99.90
23081;DHT22;11708;50.570;8.532;2023-02-15T13:11:08;3.70;99.90
23081;DHT22;11708;50.570;8.532;2023-02-15T13:13:53;3.70;99.90
23081;DHT22;11708;50.570;8.532;2023-02-15T13:16:27;3.80;99.90
23081;DHT22;11708;50.570;8.532;2023-02-15T13:18:54;3.80;99.90
23081;DHT22;11708;50.570;8.532;2023-02-15T13:21:41;3.80;99.90
23081;DHT22;11708;50.570;8.532;2023-02-15T13:26:45;3.80;99.90
23081;DHT22;11708;50.570;8.532;2023-02-15T13:29:18;3.70;99.90
23081;DHT22;11708;50.570;8.532;2023-02-15T13:31:46;3.70;99.90
23081;DHT22;11708;50.570;8.532;2023-02-15T13:34:32;3.60;99.90
23081;DHT22;11708;50.570;8.532;2023-02-15T13:37:14;3.60;99.90
23081;DHT22;11708;50.570;8.532;2023-02-15T13:39:57;3.60;99.90
23081;DHT22;11708;50.570;8.532;2023-02-15T13:42:42;3.60;99.90
23081;DHT22;11708;50.570;8.532;2023-02-15T13:51:05;3.60;99.90
23081;DHT22;11708;50.570;8.532;2023-02-15T13:53:52;3.60;99.90
23081;DHT22;11708;50.570;8.532;2023-02-15T13:59:25;3.60;99.90
23081;DHT22;11708;50.570;8.532;2023-02-15T14:18:19;3.30;99.90
23081;DHT22;11708;50.570;8.532;2023-02-15T14:21:12;3.50;99.90
23081;DHT22;11708;50.570;8.532;2023-02-15T14:26:34;3.40;99.90
23081;DHT22;11708;50.570;8.532;2023-02-15T14:32:02;3.40;99.90
23081;DHT22;11708;50.570;8.532;2023-02-15T14:40:31;3.40;99.90
23081;DHT22;11708;50.570;8.532;2023-02-15T14:46:07;3.50;99.90
23081;DHT22;11708;50.570;8.532;2023-02-15T14:48:43;3.40;99.90
23081;DHT22;11708;50.570;8.532;2023-02-15T14:51:10;3.40;99.90
23081;DHT22;11708;50.570;8.532;2023-02-15T14:53:55;3.40;99.90
23081;DHT22;11708;50.570;8.532;2023-02-15T14:56:22;3.40;99.90
23081;DHT22;11708;50.570;8.532;2023-02-15T15:01:25;3.30;99.90
23081;DHT22;11708;50.570;8.532;2023-02-15T15:03:54;3.30;99.90
23081;DHT22;11708;50.570;8.532;2023-02-15T15:06:29;3.30;99.90
23081;DHT22;11708;50.570;8.532;2023-02-15T15:09:30;3.30;99.90
23081;DHT22;11708;50.570;8.532;2023-02-15T15:14:50;3.30;99.90
23081;DHT22;11708;50.570;8.532;2023-02-15T15:20:00;3.30;99.90
23081;DHT22;11708;50.570;8.532;2023-02-15T15:22:28;3.30;99.90
23081;DHT22;11708;50.570;8.532;2023-02-15T15:24:58;3.20;99.90
23081;DHT22;11708;50.570;8.532;2023-02-15T15:41:39;3.30;99.90
23081;DHT22;11708;50.570;8.532;2023-02-15T15:49:32;3.20;99.90
23081;DHT22;11708;50.570;8.532;2023-02-15T15:52:01;3.20;99.90
23081;DHT22;11708;50.570;8.532;2023-02-15T15:54:27;3.20;99.90
23081;DHT22;11708;50.570;8.532;2023-02-15T15:56:57;3.20;99.90
23081;DHT22;11708;50.570;8.532;2023-02-15T15:59:28;3.20;99.90
23081;DHT22;11708;50.570;8.532;2023-02-15T16:01:54;3.20;99.90
23081;DHT22;11708;50.570;8.532;2023-02-15T16:04:27;3.20;99.90
23081;DHT22;11708;50.570;8.532;2023-02-15T16:06:55;3.20;99.90
23081;DHT22;11708;50.570;8.532;2023-02-15T16:09:24;3.20;99.90
23081;DHT22;11708;50.570;8.532;2023-02-15T16:11:57;3.10;99.90
23081;DHT22;11708;50.570;8.532;2023-02-15T16:14:31;3.10;99.90
23081;DHT22;11708;50.570;8.532;2023-02-15T16:17:00;3.10;99.90
23081;DHT22;11708;50.570;8.532;2023-02-15T16:19:35;3.00;99.90
23081;DHT22;11708;50.570;8.532;2023-02-15T16:22:03;3.00;99.90
23081;DHT22;11708;50.570;8.532;2023-02-15T16:24:42;3.00;99.90
23081;DHT22;11708;50.570;8.532;2023-02-15T16:29:42;3.00;99.90
23081;DHT22;11708;50.570;8.532;2023-02-15T16:35:00;2.90;99.90
23081;DHT22;11708;50.570;8.532;2023-02-15T16:37:36;2.90;99.90
23081;DHT22;11708;50.570;8.532;2023-02-15T16:40:02;2.90;99.90
23081;DHT22;11708;50.570;8.532;2023-02-15T16:42:27;2.90;99.90
23081;DHT22;11708;50.570;8.532;2023-02-15T16:45:06;2.90;99.90
23081;DHT22;11708;50.570;8.532;2023-02-15T16:47:40;2.90;99.90
23081;DHT22;11708;50.570;8.532;2023-02-15T16:50:49;2.90;99.90
23081;DHT22;11708;50.570;8.532;2023-02-15T16:53:16;2.90;99.90
23081;DHT22;11708;50.570;8.532;2023-02-15T16:55:43;2.90;99.90
23081;DHT22;11708;50.570;8.532;2023-02-15T16:58:15;2.90;99.90
23081;DHT22;11708;50.570;8.532;2023-02-15T17:00:42;2.90;99.90
23081;DHT22;11708;50.570;8.532;2023-02-15T17:08:19;2.70;99.90
23081;DHT22;11708;50.570;8.532;2023-02-15T17:13:24;2.80;99.90
23081;DHT22;11708;50.570;8.532;2023-02-15T17:18:20;2.80;99.90
23081;DHT22;11708;50.570;8.532;2023-02-15T17:20:48;2.80;99.90
23081;DHT22;11708;50.570;8.532;2023-02-15T17:23:34;2.80;99.90
23081;DHT22;11708;50.570;8.532;2023-02-15T17:26:24;2.80;99.90
23081;DHT22;11708;50.570;8.532;2023-02-15T17:28:52;2.70;99.90
23081;DHT22;11708;50.570;8.532;2023-02-15T17:31:20;2.70;99.90
23081;DHT22;11708;50.570;8.532;2023-02-15T17:33:47;2.80;99.90
23081;DHT22;11708;50.570;8.532;2023-02-15T17:36:18;2.70;99.90
23081;DHT22;11708;50.570;8.532;2023-02-15T17:41:30;2.70;99.90
23081;DHT22;11708;50.570;8.532;2023-02-15T17:43:56;2.70;99.90
23081;DHT22;11708;50.570;8.532;2023-02-15T17:46:22;2.60;99.90
23081;DHT22;11708;50.570;8.532;2023-02-15T17:48:50;2.60;99.90
23081;DHT22;11708;50.570;8.532;2023-02-15T17:51:16;2.60;99.90
23081;DHT22;11708;50.570;8.532;2023-02-15T17:53:42;2.60;99.90
23081;DHT22;11708;50.570;8.532;2023-02-15T17:56:27;2.60;99.90
23081;DHT22;11708;50.570;8.532;2023-02-15T17:58:52;2.60;99.90
23081;DHT22;11708;50.570;8.532;2023-02-15T18:01:19;2.50;99.90
23081;DHT22;11708;50.570;8.532;2023-02-15T18:04:07;2.50;99.90
23081;DHT22;11708;50.570;8.532;2023-02-15T18:06:52;2.60;99.90
23081;DHT22;11708;50.570;8.532;2023-02-15T18:09:36;2.60;99.90
23081;DHT22;11708;50.570;8.532;2023-02-15T18:12:22;2.60;99.90
23081;DHT22;11708;50.570;8.532;2023-02-15T18:14:49;2.60;99.90
23081;DHT22;11708;50.570;8.532;2023-02-15T18:17:16;2.60;99.90
23081;DHT22;11708;50.570;8.532;2023-02-15T18:19:43;2.50;99.90
23081;DHT22;11708;50.570;8.532;2023-02-15T18:22:15;2.50;99.90
23081;DHT22;11708;50.570;8.532;2023-02-15T18:24:41;2.50;99.90
23081;DHT22;11708;50.570;8.532;2023-02-15T18:27:11;2.50;99.90
23081;DHT22;11708;50.570;8.532;2023-02-15T18:29:37;2.50;99.90
23081;DHT22;11708;50.570;8.532;2023-02-15T18:32:07;2.40;99.90
23081;DHT22;11708;50.570;8.532;2023-02-15T18:34:37;2.40;99.90
23081;DHT22;11708;50.570;8.532;2023-02-15T18:37:05;2.50;99.90
23081;DHT22;11708;50.570;8.532;2023-02-15T18:39:38;2.50;99.90
23081;DHT22;11708;50.570;8.532;2023-02-15T18:42:05;2.50;99.90
23081;DHT22;11708;50.570;8.532;2023-02-15T18:44:31;2.50;99.90
23081;DHT22;11708;50.570;8.532;2023-02-15T18:46:56;2.50;99.90
23081;DHT22;11708;50.570;8.532;2023-02-15T18:49:22;2.40;99.90
23081;DHT22;11708;50.570;8.532;2023-02-15T18:51:48;2.40;99.90
23081;DHT22;11708;50.570;8.532;2023-02-15T18:54:19;2.40;99.90
23081;DHT22;11708;50.570;8.532;2023-02-15T18:56:52;2.40;99.90
23081;DHT22;11708;50.570;8.532;2023-02-15T18:59:18;2.40;99.90
23081;DHT22;11708;50.570;8.532;2023-02-15T19:01:44;2.40;99.90
23081;DHT22;11708;50.570;8.532;2023-02-15T19:04:09;2.40;99.90
23081;DHT22;11708;50.570;8.532;2023-02-15T19:06:36;2.40;99.90
23081;DHT22;11708;50.570;8.532;2023-02-15T19:09:02;2.40;99.90
23081;DHT22;11708;50.570;8.532;2023-02-15T19:11:28;2.40;99.90
23081;DHT22;11708;50.570;8.532;2023-02-15T19:13:54;2.50;99.90
23081;DHT22;11708;50.570;8.532;2023-02-15T19:16:31;2.50;99.90
23081;DHT22;11708;50.570;8.532;2023-02-15T19:18:57;2.50;99.90
23081;DHT22;11708;50.570;8.532;2023-02-15T19:21:24;2.50;99.90
23081;DHT22;11708;50.570;8.532;2023-02-15T19:24:01;2.50;99.90
23081;DHT22;11708;50.570;8.532;2023-02-15T19:26:27;2.50;99.90
23081;DHT22;11708;50.570;8.532;2023-02-15T19:28:59;2.50;99.90
23081;DHT22;11708;50.570;8.532;2023-02-15T19:33:51;2.40;99.90
23081;DHT22;11708;50.570;8.532;2023-02-15T19:36:17;2.40;99.90
23081;DHT22;11708;50.570;8.532;2023-02-15T19:38:46;2.50;99.90